sensor_id;sensor_type;location;lat;lon;timestamp;pressure;altitude;pressure_sealevel;temperature;humidity
73679;BME280;61978;52.742;16.962;2022-07-03T09:49:53;101170.42;;;24.45;61.39
73679;BME280;61978;52.742;16.962;2022-07-03T09:54:58;101168.80;;;24.44;61.98
73679;BME280;61978;52.742;16.962;2022-07-03T09:57:29;101154.48;;;24.42;62.05
73679;BME280;61978;52.742;16.962;2022-07-03T10:00:15;101159.98;;;24.42;62.13
73679;BME280;61978;52.742;16.962;2022-07-03T10:03:03;101158.35;;;24.41;62.13
73679;BME280;61978;52.742;16.962;2022-07-03T10:08:12;101152.03;;;24.43;62.24
73679;BME280;61978;52.742;16.962;2022-07-03T10:10:42;101147.09;;;24.45;62.27
73679;BME280;61978;52.742;16.962;2022-07-03T10:13:10;101146.30;;;24.47;62.35
73679;BME280;61978;52.742;16.962;2022-07-03T10:15:38;101144.92;;;24.49;62.30
73679;BME280;61978;52.742;16.962;2022-07-03T10:18:08;101141.89;;;24.51;62.25
73679;BME280;61978;52.742;16.962;2022-07-03T10:20:38;101141.35;;;24.54;62.24
73679;BME280;61978;52.742;16.962;2022-07-03T10:23:04;101133.11;;;24.54;62.26
73679;BME280;61978;52.742;16.962;2022-07-03T10:25:35;101130.66;;;24.55;62.26
73679;BME280;61978;52.742;16.962;2022-07-03T10:28:03;101135.32;;;24.57;62.30
73679;BME280;61978;52.742;16.962;2022-07-03T10:30:34;101128.74;;;24.58;62.15
73679;BME280;61978;52.742;16.962;2022-07-03T10:33:01;101122.97;;;24.59;62.04
73679;BME280;61978;52.742;16.962;2022-07-03T10:35:32;101116.09;;;24.59;61.96
73679;BME280;61978;52.742;16.962;2022-07-03T10:44:09;101110.89;;;24.63;62.00
73679;BME280;61978;52.742;16.962;2022-07-03T10:46:55;101105.69;;;24.64;61.87
73679;BME280;61978;52.742;16.962;2022-07-03T10:49:36;101108.44;;;24.64;61.83
73679;BME280;61978;52.742;16.962;2022-07-03T10:52:19;101093.03;;;24.63;61.72
73679;BME280;61978;52.742;16.962;2022-07-03T10:54:50;101090.58;;;24.61;61.85
73679;BME280;61978;52.742;16.962;2022-07-03T10:57:18;101095.24;;;24.61;61.81
73679;BME280;61978;52.742;16.962;2022-07-03T11:13:06;101076.84;;;24.64;61.56
73679;BME280;61978;52.742;16.962;2022-07-03T11:15:41;101071.61;;;24.65;61.43
73679;BME280;61978;52.742;16.962;2022-07-03T11:18:37;101064.73;;;24.65;61.41
73679;BME280;61978;52.742;16.962;2022-07-03T11:24:05;101054.87;;;24.66;61.69
73679;BME280;61978;52.742;16.962;2022-07-03T11:26:29;101054.04;;;24.66;61.84
73679;BME280;61978;52.742;16.962;2022-07-03T11:28:57;101045.80;;;24.66;61.91
73679;BME280;61978;52.742;16.962;2022-07-03T11:31:25;101040.59;;;24.67;61.86
73679;BME280;61978;52.742;16.962;2022-07-03T11:36:32;101036.73;;;24.65;61.63
73679;BME280;61978;52.742;16.962;2022-07-03T11:44:08;101026.57;;;24.66;59.49
73679;BME280;61978;52.742;16.962;2022-07-03T11:46:38;101025.73;;;24.65;59.12
73679;BME280;61978;52.742;16.962;2022-07-03T11:49:11;101019.98;;;24.67;59.00
73679;BME280;61978;52.742;16.962;2022-07-03T11:51:41;101019.16;;;24.66;58.98
73679;BME280;61978;52.742;16.962;2022-07-03T11:54:10;101018.33;;;24.66;58.86
73679;BME280;61978;52.742;16.962;2022-07-03T11:56:38;101020.24;;;24.68;59.40
73679;BME280;61978;52.742;16.962;2022-07-03T11:59:07;101029.31;;;24.71;60.12
73679;BME280;61978;52.742;16.962;2022-07-03T12:01:35;101024.11;;;24.69;60.16
73679;BME280;61978;52.742;16.962;2022-07-03T12:04:12;101012.83;;;24.71;59.94
73679;BME280;61978;52.742;16.962;2022-07-03T12:06:50;101014.20;;;24.71;60.15
73679;BME280;61978;52.742;16.962;2022-07-03T12:09:27;101014.48;;;24.72;60.36
73679;BME280;61978;52.742;16.962;2022-07-03T12:12:08;101005.70;;;24.72;60.26
73679;BME280;61978;52.742;16.962;2022-07-03T12:14:45;101006.78;;;24.74;60.27
73679;BME280;61978;52.742;16.962;2022-07-03T12:19:58;101001.03;;;24.75;61.02
73679;BME280;61978;52.742;16.962;2022-07-03T12:22:32;100999.11;;;24.76;60.78
73679;BME280;61978;52.742;16.962;2022-07-03T12:27:34;101002.41;;;24.78;60.58
73679;BME280;61978;52.742;16.962;2022-07-03T12:30:03;100998.00;;;24.77;60.57
73679;BME280;61978;52.742;16.962;2022-07-03T12:32:32;100993.34;;;24.75;60.65
73679;BME280;61978;52.742;16.962;2022-07-03T12:35:00;100983.72;;;24.75;60.73
73679;BME280;61978;52.742;16.962;2022-07-03T12:37:37;100990.30;;;24.74;60.76
73679;BME280;61978;52.742;16.962;2022-07-03T12:40:10;100989.22;;;24.75;61.38
73679;BME280;61978;52.742;16.962;2022-07-03T12:42:49;100986.75;;;24.76;61.38
73679;BME280;61978;52.742;16.962;2022-07-03T12:45:19;100984.26;;;24.77;61.03
73679;BME280;61978;52.742;16.962;2022-07-03T12:47:58;100987.58;;;24.79;60.99
73679;BME280;61978;52.742;16.962;2022-07-03T12:50:43;100987.58;;;24.79;61.15
73679;BME280;61978;52.742;16.962;2022-07-03T12:52:57;100983.45;;;24.79;61.10
73679;BME280;61978;52.742;16.962;2022-07-03T12:55:26;100975.78;;;24.81;61.58
73679;BME280;61978;52.742;16.962;2022-07-03T12:58:16;100979.61;;;24.82;61.50
73679;BME280;61978;52.742;16.962;2022-07-03T13:01:00;100981.27;;;24.83;61.20
73679;BME280;61978;52.742;16.962;2022-07-03T13:03:34;100974.69;;;24.84;61.10
73679;BME280;61978;52.742;16.962;2022-07-03T13:06:11;100979.89;;;24.86;60.95
73679;BME280;61978;52.742;16.962;2022-07-03T13:08:32;100975.77;;;24.86;61.78
73679;BME280;61978;52.742;16.962;2022-07-03T13:11:00;100979.89;;;24.86;61.83
73679;BME280;61978;52.742;16.962;2022-07-03T13:13:45;100981.27;;;24.86;61.41
73679;BME280;61978;52.742;16.962;2022-07-03T13:16:00;100971.65;;;24.86;61.04
73679;BME280;61978;52.742;16.962;2022-07-03T13:18:29;100973.02;;;24.86;60.80
73679;BME280;61978;52.742;16.962;2022-07-03T13:20:56;100967.27;;;24.85;60.96
73679;BME280;61978;52.742;16.962;2022-07-03T13:23:26;100970.28;;;24.83;61.04
73679;BME280;61978;52.742;16.962;2022-07-03T13:25:53;100962.87;;;24.81;61.47
73679;BME280;61978;52.742;16.962;2022-07-03T13:28:21;100960.36;;;24.80;61.95
73679;BME280;61978;52.742;16.962;2022-07-03T13:30:52;100960.11;;;24.79;61.99
73679;BME280;61978;52.742;16.962;2022-07-03T13:33:20;100951.03;;;24.78;62.35
73679;BME280;61978;52.742;16.962;2022-07-03T13:35:49;100955.44;;;24.79;62.49
73679;BME280;61978;52.742;16.962;2022-07-03T13:38:16;100953.48;;;24.80;62.50
73679;BME280;61978;52.742;16.962;2022-07-03T13:40:46;100942.81;;;24.81;62.54
73679;BME280;61978;52.742;16.962;2022-07-03T13:43:14;100945.27;;;24.82;62.66
73679;BME280;61978;52.742;16.962;2022-07-03T13:45:42;100944.18;;;24.83;62.72
73679;BME280;61978;52.742;16.962;2022-07-03T13:48:10;100939.52;;;24.84;62.80
73679;BME280;61978;52.742;16.962;2022-07-03T13:50:43;100935.68;;;24.85;62.82
73679;BME280;61978;52.742;16.962;2022-07-03T13:53:13;100936.76;;;24.86;62.83
73679;BME280;61978;52.742;16.962;2022-07-03T13:55:46;100935.67;;;24.88;62.85
73679;BME280;61978;52.742;16.962;2022-07-03T13:58:15;100929.63;;;24.88;63.01
73679;BME280;61978;52.742;16.962;2022-07-03T14:00:44;100922.19;;;24.86;62.75
73679;BME280;61978;52.742;16.962;2022-07-03T14:03:12;100923.31;;;24.85;62.78
73679;BME280;61978;52.742;16.962;2022-07-03T14:05:39;100921.37;;;24.83;62.84
73679;BME280;61978;52.742;16.962;2022-07-03T14:08:07;100918.37;;;24.82;62.78
73679;BME280;61978;52.742;16.962;2022-07-03T14:10:37;100912.05;;;24.81;63.14
73679;BME280;61978;52.742;16.962;2022-07-03T14:13:05;100916.42;;;24.82;63.10
73679;BME280;61978;52.742;16.962;2022-07-03T14:15:33;100921.66;;;24.84;62.83
73679;BME280;61978;52.742;16.962;2022-07-03T14:18:01;100916.70;;;24.83;62.75
73679;BME280;61978;52.742;16.962;2022-07-03T14:20:29;100920.28;;;24.84;62.81
73679;BME280;61978;52.742;16.962;2022-07-03T14:22:55;100919.20;;;24.85;62.72
73679;BME280;61978;52.742;16.962;2022-07-03T14:25:22;100912.59;;;24.83;62.71
73679;BME280;61978;52.742;16.962;2022-07-03T14:27:49;100912.30;;;24.82;62.72
73679;BME280;61978;52.742;16.962;2022-07-03T14:30:36;100905.72;;;24.81;62.76
73679;BME280;61978;52.742;16.962;2022-07-03T14:33:21;100903.80;;;24.81;62.82
73679;BME280;61978;52.742;16.962;2022-07-03T14:35:50;100897.77;;;24.82;62.81
73679;BME280;61978;52.742;16.962;2022-07-03T14:38:19;100892.81;;;24.84;62.79
73679;BME280;61978;52.742;16.962;2022-07-03T14:40:47;100887.31;;;24.84;62.69
73679;BME280;61978;52.742;16.962;2022-07-03T14:43:15;100888.39;;;24.85;62.68
73679;BME280;61978;52.742;16.962;2022-07-03T14:45:44;100889.22;;;24.86;62.51
73679;BME280;61978;52.742;16.962;2022-07-03T14:48:12;100888.13;;;24.87;62.47
73679;BME280;61978;52.742;16.962;2022-07-03T14:50:42;100893.91;;;24.88;62.41
73679;BME280;61978;52.742;16.962;2022-07-03T14:53:12;100889.79;;;24.88;62.34
73679;BME280;61978;52.742;16.962;2022-07-03T14:55:41;100888.66;;;24.89;62.26
73679;BME280;61978;52.742;16.962;2022-07-03T14:58:16;100889.21;;;24.88;62.28
73679;BME280;61978;52.742;16.962;2022-07-03T15:00:53;100890.04;;;24.89;62.23
73679;BME280;61978;52.742;16.962;2022-07-03T15:03:29;100883.72;;;24.86;61.99
73679;BME280;61978;52.742;16.962;2022-07-03T15:06:07;100887.31;;;24.84;61.83
73679;BME280;61978;52.742;16.962;2022-07-03T15:11:18;100871.07;;;24.80;61.85
73679;BME280;61978;52.742;16.962;2022-07-03T15:14:04;100879.31;;;24.80;62.13
73679;BME280;61978;52.742;16.962;2022-07-03T15:16:33;100874.41;;;24.82;62.21
73679;BME280;61978;52.742;16.962;2022-07-03T15:19:00;100875.50;;;24.81;62.08
73679;BME280;61978;52.742;16.962;2022-07-03T15:21:30;100868.92;;;24.82;61.87
73679;BME280;61978;52.742;16.962;2022-07-03T15:24:06;100867.80;;;24.83;61.93
73679;BME280;61978;52.742;16.962;2022-07-03T15:26:37;100869.72;;;24.82;61.70
73679;BME280;61978;52.742;16.962;2022-07-03T15:29:06;100862.59;;;24.84;61.53
73679;BME280;61978;52.742;16.962;2022-07-03T15:31:37;100860.13;;;24.85;61.59
73679;BME280;61978;52.742;16.962;2022-07-03T15:34:07;100857.63;;;24.86;61.71
73679;BME280;61978;52.742;16.962;2022-07-03T15:37:14;100856.53;;;24.87;61.64
73679;BME280;61978;52.742;16.962;2022-07-03T15:40:00;100859.56;;;24.88;61.54
73679;BME280;61978;52.742;16.962;2022-07-03T15:42:43;100859.00;;;24.86;61.41
73679;BME280;61978;52.742;16.962;2022-07-03T15:51:05;100859.02;;;24.81;61.42
73679;BME280;61978;52.742;16.962;2022-07-03T15:53:27;100851.59;;;24.79;61.54
73679;BME280;61978;52.742;16.962;2022-07-03T15:55:57;100848.27;;;24.77;61.62
73679;BME280;61978;52.742;16.962;2022-07-03T15:58:26;100853.52;;;24.76;61.71
73679;BME280;61978;52.742;16.962;2022-07-03T16:01:03;100848.83;;;24.74;61.76
73679;BME280;61978;52.742;16.962;2022-07-03T16:06:22;100849.11;;;24.75;61.96
73679;BME280;61978;52.742;16.962;2022-07-03T16:08:50;100846.65;;;24.76;62.02
73679;BME280;61978;52.742;16.962;2022-07-03T16:11:21;100841.69;;;24.78;62.03
73679;BME280;61978;52.742;16.962;2022-07-03T16:13:52;100842.22;;;24.80;62.05
73679;BME280;61978;52.742;16.962;2022-07-03T16:16:24;100838.10;;;24.80;62.08
73679;BME280;61978;52.742;16.962;2022-07-03T16:18:54;100839.47;;;24.80;62.09
73679;BME280;61978;52.742;16.962;2022-07-03T16:21:22;100836.48;;;24.79;62.16
73679;BME280;61978;52.742;16.962;2022-07-03T16:23:50;100833.16;;;24.77;62.20
73679;BME280;61978;52.742;16.962;2022-07-03T16:26:19;100827.67;;;24.77;62.30
73679;BME280;61978;52.742;16.962;2022-07-03T16:28:48;100831.26;;;24.75;62.38
73679;BME280;61978;52.742;16.962;2022-07-03T16:31:19;100826.85;;;24.74;62.46
73679;BME280;61978;52.742;16.962;2022-07-03T16:33:55;100827.14;;;24.72;62.55
73679;BME280;61978;52.742;16.962;2022-07-03T16:36:19;100823.29;;;24.71;62.65
73679;BME280;61978;52.742;16.962;2022-07-03T16:38:51;100823.87;;;24.70;62.70
73679;BME280;61978;52.742;16.962;2022-07-03T16:41:17;100826.87;;;24.69;62.78
73679;BME280;61978;52.742;16.962;2022-07-03T16:43:48;100824.66;;;24.71;62.87
73679;BME280;61978;52.742;16.962;2022-07-03T16:46:21;100817.80;;;24.71;62.98
73679;BME280;61978;52.742;16.962;2022-07-03T16:48:49;100824.69;;;24.73;62.99
73679;BME280;61978;52.742;16.962;2022-07-03T16:51:18;100824.94;;;24.74;62.99
73679;BME280;61978;52.742;16.962;2022-07-03T16:53:46;100826.58;;;24.78;62.94
73679;BME280;61978;52.742;16.962;2022-07-03T16:56:13;100823.55;;;24.77;62.97
73679;BME280;61978;52.742;16.962;2022-07-03T16:58:43;100820.27;;;24.75;62.95
73679;BME280;61978;52.742;16.962;2022-07-03T17:01:11;100820.81;;;24.74;62.98
73679;BME280;61978;52.742;16.962;2022-07-03T17:03:39;100818.36;;;24.73;63.11
73679;BME280;61978;52.742;16.962;2022-07-03T17:06:06;100824.95;;;24.72;63.08
73679;BME280;61978;52.742;16.962;2022-07-03T17:08:35;100826.60;;;24.73;63.11
73679;BME280;61978;52.742;16.962;2022-07-03T17:11:04;100824.95;;;24.69;63.18
73679;BME280;61978;52.742;16.962;2022-07-03T17:13:35;100820.02;;;24.69;63.21
73679;BME280;61978;52.742;16.962;2022-07-03T17:16:05;100816.45;;;24.66;63.19
73679;BME280;61978;52.742;16.962;2022-07-03T17:18:36;100817.82;;;24.66;62.83
73679;BME280;61978;52.742;16.962;2022-07-03T17:21:05;100817.82;;;24.66;62.52
73679;BME280;61978;52.742;16.962;2022-07-03T17:23:35;100822.78;;;24.64;62.46
73679;BME280;61978;52.742;16.962;2022-07-03T17:26:05;100816.45;;;24.66;62.33
73679;BME280;61978;52.742;16.962;2022-07-03T17:29:17;100812.86;;;24.68;62.11
73679;BME280;61978;52.742;16.962;2022-07-03T17:31:12;100816.42;;;24.71;62.01
73679;BME280;61978;52.742;16.962;2022-07-03T17:33:36;100810.67;;;24.70;61.89
73679;BME280;61978;52.742;16.962;2022-07-03T17:36:06;100812.30;;;24.71;61.76
73679;BME280;61978;52.742;16.962;2022-07-03T17:38:35;100804.64;;;24.70;61.73
73679;BME280;61978;52.742;16.962;2022-07-03T17:41:04;100810.67;;;24.70;61.69
73679;BME280;61978;52.742;16.962;2022-07-03T17:43:31;100812.86;;;24.68;61.62
73679;BME280;61978;52.742;16.962;2022-07-03T17:45:59;100805.99;;;24.68;61.56
73679;BME280;61978;52.742;16.962;2022-07-03T17:48:27;100801.34;;;24.66;61.53
73679;BME280;61978;52.742;16.962;2022-07-03T17:50:55;100807.92;;;24.65;61.58
73679;BME280;61978;52.742;16.962;2022-07-03T17:53:23;100805.75;;;24.64;61.64
73679;BME280;61978;52.742;16.962;2022-07-03T17:55:51;100804.64;;;24.63;61.67
73679;BME280;61978;52.742;16.962;2022-07-03T17:58:18;100801.61;;;24.62;61.75
73679;BME280;61978;52.742;16.962;2022-07-03T18:00:47;100794.50;;;24.61;61.77
73679;BME280;61978;52.742;16.962;2022-07-03T18:03:17;100790.64;;;24.59;61.83
73679;BME280;61978;52.742;16.962;2022-07-03T18:05:46;100798.05;;;24.59;61.91
73679;BME280;61978;52.742;16.962;2022-07-03T18:08:22;100792.30;;;24.58;61.98
73679;BME280;61978;52.742;16.962;2022-07-03T18:16:10;100792.00;;;24.62;62.16
73679;BME280;61978;52.742;16.962;2022-07-03T18:18:44;100788.71;;;24.62;62.21
73679;BME280;61978;52.742;16.962;2022-07-03T18:21:10;100791.73;;;24.63;62.23
73679;BME280;61978;52.742;16.962;2022-07-03T18:23:49;100792.28;;;24.63;62.30
73679;BME280;61978;52.742;16.962;2022-07-03T18:26:39;100793.66;;;24.63;62.39
73679;BME280;61978;52.742;16.962;2022-07-03T18:29:01;100793.66;;;24.63;62.50
73679;BME280;61978;52.742;16.962;2022-07-03T18:31:28;100789.00;;;24.61;62.59
73679;BME280;61978;52.742;16.962;2022-07-03T18:33:55;100799.16;;;24.60;62.68
73679;BME280;61978;52.742;16.962;2022-07-03T18:36:22;100792.84;;;24.60;62.79
73679;BME280;61978;52.742;16.962;2022-07-03T18:38:50;100786.81;;;24.58;62.87
73679;BME280;61978;52.742;16.962;2022-07-03T18:41:17;100787.91;;;24.57;62.98
73679;BME280;61978;52.742;16.962;2022-07-03T18:43:45;100787.91;;;24.57;63.05
73679;BME280;61978;52.742;16.962;2022-07-03T18:46:12;100786.00;;;24.55;63.15
73679;BME280;61978;52.742;16.962;2022-07-03T18:48:39;100787.38;;;24.55;63.28
73679;BME280;61978;52.742;16.962;2022-07-03T18:51:35;100781.05;;;24.54;63.37
73679;BME280;61978;52.742;16.962;2022-07-03T19:02:15;100789.03;;;24.48;63.93
73679;BME280;61978;52.742;16.962;2022-07-03T19:04:48;100791.52;;;24.50;64.18
73679;BME280;61978;52.742;16.962;2022-07-03T19:07:24;100792.60;;;24.49;64.34
73679;BME280;61978;52.742;16.962;2022-07-03T19:10:02;100800.02;;;24.48;64.75
73679;BME280;61978;52.742;16.962;2022-07-03T19:12:33;100794.23;;;24.47;65.09
73679;BME280;61978;52.742;16.962;2022-07-03T19:14:59;100792.06;;;24.47;65.37
73679;BME280;61978;52.742;16.962;2022-07-03T19:17:31;100790.41;;;24.46;65.55
73679;BME280;61978;52.742;16.962;2022-07-03T19:20:00;100799.73;;;24.45;65.71
73679;BME280;61978;52.742;16.962;2022-07-03T19:22:28;100799.73;;;24.45;65.75
73679;BME280;61978;52.742;16.962;2022-07-03T19:24:56;100798.11;;;24.44;65.89
73679;BME280;61978;52.742;16.962;2022-07-03T19:27:25;100800.86;;;24.44;66.03
73679;BME280;61978;52.742;16.962;2022-07-03T19:29:54;100804.70;;;24.43;66.04
73679;BME280;61978;52.742;16.962;2022-07-03T19:32:21;100798.67;;;24.41;66.11
73679;BME280;61978;52.742;16.962;2022-07-03T19:34:48;100806.91;;;24.41;66.28
73679;BME280;61978;52.742;16.962;2022-07-03T19:37:16;100805.25;;;24.40;66.37
73679;BME280;61978;52.742;16.962;2022-07-03T19:39:45;100802.50;;;24.40;66.36
73679;BME280;61978;52.742;16.962;2022-07-03T19:42:12;100803.59;;;24.39;66.33
73679;BME280;61978;52.742;16.962;2022-07-03T19:44:40;100796.47;;;24.38;66.30
73679;BME280;61978;52.742;16.962;2022-07-03T19:47:07;100795.91;;;24.36;66.36
73679;BME280;61978;52.742;16.962;2022-07-03T19:49:40;100796.20;;;24.34;66.40
73679;BME280;61978;52.742;16.962;2022-07-03T19:52:08;100799.77;;;24.35;66.36
73679;BME280;61978;52.742;16.962;2022-07-03T19:54:39;100800.03;;;24.33;66.35
73679;BME280;61978;52.742;16.962;2022-07-03T19:57:08;100797.58;;;24.31;66.29
73679;BME280;61978;52.742;16.962;2022-07-03T19:59:36;100800.05;;;24.30;66.29
73679;BME280;61978;52.742;16.962;2022-07-03T20:02:05;100802.50;;;24.29;66.18
73679;BME280;61978;52.742;16.962;2022-07-03T20:04:32;100803.06;;;24.26;66.00
73679;BME280;61978;52.742;16.962;2022-07-03T20:06:59;100805.55;;;24.25;65.96
73679;BME280;61978;52.742;16.962;2022-07-03T20:09:29;100811.58;;;24.25;66.00
73679;BME280;61978;52.742;16.962;2022-07-03T20:12:05;100811.84;;;24.23;65.99
73679;BME280;61978;52.742;16.962;2022-07-03T20:14:34;100805.81;;;24.21;66.15
73679;BME280;61978;52.742;16.962;2022-07-03T20:17:05;100810.23;;;24.20;66.20
73679;BME280;61978;52.742;16.962;2022-07-03T20:19:32;100812.97;;;24.20;66.37
73679;BME280;61978;52.742;16.962;2022-07-03T20:22:01;100818.17;;;24.19;66.34
73679;BME280;61978;52.742;16.962;2022-07-03T20:24:32;100815.14;;;24.18;66.50
73679;BME280;61978;52.742;16.962;2022-07-03T20:27:08;100810.77;;;24.17;66.74
73679;BME280;61978;52.742;16.962;2022-07-03T20:29:45;100812.94;;;24.17;66.90
73679;BME280;61978;52.742;16.962;2022-07-03T20:32:10;100816.27;;;24.17;69.16
73679;BME280;61978;52.742;16.962;2022-07-03T20:34:39;100809.91;;;24.29;77.21
73679;BME280;61978;52.742;16.962;2022-07-03T20:37:08;100803.04;;;24.42;83.57
73679;BME280;61978;52.742;16.962;2022-07-03T20:39:39;100806.05;;;24.48;87.68
73679;BME280;61978;52.742;16.962;2022-07-03T20:42:08;100816.21;;;24.45;90.02
73679;BME280;61978;52.742;16.962;2022-07-03T20:44:36;100816.76;;;24.44;91.56
73679;BME280;61978;52.742;16.962;2022-07-03T20:47:03;100814.84;;;24.42;92.57
73679;BME280;61978;52.742;16.962;2022-07-03T20:49:31;100815.66;;;24.48;93.48
73679;BME280;61978;52.742;16.962;2022-07-03T20:51:58;100817.88;;;24.46;94.24
73679;BME280;61978;52.742;16.962;2022-07-03T20:54:26;100821.45;;;24.33;90.02
73679;BME280;61978;52.742;16.962;2022-07-03T20:56:55;100825.83;;;24.32;85.68
73679;BME280;61978;52.742;16.962;2022-07-03T20:59:23;100829.97;;;24.35;83.78
73679;BME280;61978;52.742;16.962;2022-07-03T21:01:50;100838.19;;;24.40;84.28
73679;BME280;61978;52.742;16.962;2022-07-03T21:04:19;100841.48;;;24.39;84.39
73679;BME280;61978;52.742;16.962;2022-07-03T21:06:46;100839.84;;;24.41;84.18
73679;BME280;61978;52.742;16.962;2022-07-03T21:09:17;100839.28;;;24.39;84.36
73679;BME280;61978;52.742;16.962;2022-07-03T21:11:50;100839.29;;;24.36;83.08
73679;BME280;61978;52.742;16.962;2022-07-03T21:14:21;100847.54;;;24.31;80.53
73679;BME280;61978;52.742;16.962;2022-07-03T21:16:49;100851.91;;;24.29;79.01
73679;BME280;61978;52.742;16.962;2022-07-03T21:19:20;100857.16;;;24.28;78.40
73679;BME280;61978;52.742;16.962;2022-07-03T21:21:49;100855.78;;;24.26;77.67
73679;BME280;61978;52.742;16.962;2022-07-03T21:24:18;100861.25;;;24.23;76.30
73679;BME280;61978;52.742;16.962;2022-07-03T21:26:47;100854.39;;;24.21;75.52
73679;BME280;61978;52.742;16.962;2022-07-03T21:29:16;100848.36;;;24.21;75.89
73679;BME280;61978;52.742;16.962;2022-07-03T21:31:44;100853.56;;;24.20;75.81
73679;BME280;61978;52.742;16.962;2022-07-03T21:34:12;100854.11;;;24.17;75.66
73679;BME280;61978;52.742;16.962;2022-07-03T21:36:39;100851.66;;;24.13;75.33
73679;BME280;61978;52.742;16.962;2022-07-03T21:39:06;100848.09;;;24.15;76.12
73679;BME280;61978;52.742;16.962;2022-07-03T21:41:36;100851.38;;;24.15;76.78
73679;BME280;61978;52.742;16.962;2022-07-03T21:44:04;100852.20;;;24.13;76.07
73679;BME280;61978;52.742;16.962;2022-07-03T21:46:32;100853.28;;;24.14;76.67
73679;BME280;61978;52.742;16.962;2022-07-03T21:49:02;100851.91;;;24.14;76.73
73679;BME280;61978;52.742;16.962;2022-07-03T21:51:29;100855.20;;;24.11;75.50
73679;BME280;61978;52.742;16.962;2022-07-03T21:53:59;100858.78;;;24.12;75.04
73679;BME280;61978;52.742;16.962;2022-07-03T21:56:26;100851.09;;;24.11;74.66
73679;BME280;61978;52.742;16.962;2022-07-03T21:58:54;100848.09;;;24.10;74.45
73679;BME280;61978;52.742;16.962;2022-07-03T22:01:23;100852.72;;;24.10;74.25
73679;BME280;61978;52.742;16.962;2022-07-03T22:03:50;100851.61;;;24.06;74.76
73679;BME280;61978;52.742;16.962;2022-07-03T22:06:17;100844.75;;;24.03;76.76
73679;BME280;61978;52.742;16.962;2022-07-03T22:08:45;100847.50;;;24.03;79.19
73679;BME280;61978;52.742;16.962;2022-07-03T22:11:15;100842.84;;;24.01;80.75
73679;BME280;61978;52.742;16.962;2022-07-03T22:13:42;100838.73;;;24.01;81.60
73679;BME280;61978;52.742;16.962;2022-07-03T22:16:09;100840.92;;;24.02;82.56
73679;BME280;61978;52.742;16.962;2022-07-03T22:18:39;100844.22;;;24.01;81.81
73679;BME280;61978;52.742;16.962;2022-07-03T22:21:08;100843.67;;;24.02;81.00
73679;BME280;61978;52.742;16.962;2022-07-03T22:23:38;100839.26;;;24.08;82.09
73679;BME280;61978;52.742;16.962;2022-07-03T22:26:05;100833.53;;;24.15;85.17
73679;BME280;61978;52.742;16.962;2022-07-03T22:28:33;100832.98;;;24.15;86.81
73679;BME280;61978;52.742;16.962;2022-07-03T22:31:00;100836.02;;;24.14;86.63
73679;BME280;61978;52.742;16.962;2022-07-03T22:33:45;100834.38;;;24.10;84.99
73679;BME280;61978;52.742;16.962;2022-07-03T22:36:13;100842.29;;;24.09;82.95
73679;BME280;61978;52.742;16.962;2022-07-03T22:38:41;100839.00;;;24.07;81.27
73679;BME280;61978;52.742;16.962;2022-07-03T22:41:08;100835.98;;;24.06;79.90
73679;BME280;61978;52.742;16.962;2022-07-03T22:43:35;100839.00;;;24.07;78.73
73679;BME280;61978;52.742;16.962;2022-07-03T22:46:02;100834.60;;;24.06;77.66
73679;BME280;61978;52.742;16.962;2022-07-03T22:48:29;100825.83;;;24.04;76.79
73679;BME280;61978;52.742;16.962;2022-07-03T22:50:56;100829.95;;;24.04;76.08
73679;BME280;61978;52.742;16.962;2022-07-03T22:53:23;100828.03;;;24.05;75.44
73679;BME280;61978;52.742;16.962;2022-07-03T22:55:51;100831.86;;;24.04;74.85
73679;BME280;61978;52.742;16.962;2022-07-03T22:58:22;100829.66;;;24.03;74.38
73679;BME280;61978;52.742;16.962;2022-07-03T23:00:56;100820.89;;;24.01;73.97
73679;BME280;61978;52.742;16.962;2022-07-03T23:03:24;100826.92;;;24.01;73.50
73679;BME280;61978;52.742;16.962;2022-07-03T23:05:52;100824.72;;;24.00;73.16
73679;BME280;61978;52.742;16.962;2022-07-03T23:08:22;100819.52;;;23.99;72.77
73679;BME280;61978;52.742;16.962;2022-07-03T23:10:48;100824.19;;;23.98;72.51
73679;BME280;61978;52.742;16.962;2022-07-03T23:13:16;100817.03;;;23.97;72.21
73679;BME280;61978;52.742;16.962;2022-07-03T23:15:44;100824.44;;;23.97;72.04
73679;BME280;61978;52.742;16.962;2022-07-03T23:18:11;100820.61;;;23.95;71.79
73679;BME280;61978;52.742;16.962;2022-07-03T23:20:39;100819.24;;;23.95;71.67
73679;BME280;61978;52.742;16.962;2022-07-03T23:23:06;100810.73;;;23.94;71.54
73679;BME280;61978;52.742;16.962;2022-07-03T23:25:35;100811.27;;;23.94;71.22
73679;BME280;61978;52.742;16.962;2022-07-03T23:28:01;100809.10;;;23.93;70.95
73679;BME280;61978;52.742;16.962;2022-07-03T23:30:28;100803.87;;;23.94;72.16
73679;BME280;61978;52.742;16.962;2022-07-03T23:32:56;100806.36;;;23.93;72.17
73679;BME280;61978;52.742;16.962;2022-07-03T23:35:23;100803.61;;;23.93;72.08
73679;BME280;61978;52.742;16.962;2022-07-03T23:37:51;100806.61;;;23.92;71.65
73679;BME280;61978;52.742;16.962;2022-07-03T23:40:18;100799.77;;;23.89;71.37
73679;BME280;61978;52.742;16.962;2022-07-03T23:42:46;100803.33;;;23.90;71.16
73679;BME280;61978;52.742;16.962;2022-07-03T23:45:13;100799.47;;;23.88;71.12
73679;BME280;61978;52.742;16.962;2022-07-03T23:47:42;100807.98;;;23.89;71.08
73679;BME280;61978;52.742;16.962;2022-07-03T23:50:09;100801.39;;;23.88;71.04